sensor_id;sensor_type;location;lat;lon;timestamp;temperature;humidity
68011;DHT22;54794;48.348;7.878;2023-02-15T00:02:25;5.00;69.70
68011;DHT22;54794;48.348;7.878;2023-02-15T00:13:23;5.40;70.20
68011;DHT22;54794;48.348;7.878;2023-02-15T00:16:53;4.50;69.60
68011;DHT22;54794;48.348;7.878;2023-02-15T00:20:30;4.50;69.70
68011;DHT22;54794;48.348;7.878;2023-02-15T00:23:52;4.50;69.60
68011;DHT22;54794;48.348;7.878;2023-02-15T00:27:18;4.50;69.50
68011;DHT22;54794;48.348;7.878;2023-02-15T00:30:34;4.40;69.50
68011;DHT22;54794;48.348;7.878;2023-02-15T00:33:42;4.40;69.60
68011;DHT22;54794;48.348;7.878;2023-02-15T00:40:25;4.40;69.40
68011;DHT22;54794;48.348;7.878;2023-02-15T00:43:56;4.30;69.40
68011;DHT22;54794;48.348;7.878;2023-02-15T00:51:08;4.30;69.50
68011;DHT22;54794;48.348;7.878;2023-02-15T00:54:41;5.30;70.20
68011;DHT22;54794;48.348;7.878;2023-02-15T00:57:55;5.10;70.00
68011;DHT22;54794;48.348;7.878;2023-02-15T01:05:16;4.40;69.70
68011;DHT22;54794;48.348;7.878;2023-02-15T01:08:54;4.30;69.60
68011;DHT22;54794;48.348;7.878;2023-02-15T01:16:41;4.30;69.50
68011;DHT22;54794;48.348;7.878;2023-02-15T01:20:33;4.80;69.90
68011;DHT22;54794;48.348;7.878;2023-02-15T01:24:29;4.20;69.60
68011;DHT22;54794;48.348;7.878;2023-02-15T01:36:13;4.20;69.70
68011;DHT22;54794;48.348;7.878;2023-02-15T01:39:23;4.70;70.00
68011;DHT22;54794;48.348;7.878;2023-02-15T01:43:11;4.20;69.60
68011;DHT22;54794;48.348;7.878;2023-02-15T01:46:39;4.20;69.70
68011;DHT22;54794;48.348;7.878;2023-02-15T01:50:38;3.90;69.50
68011;DHT22;54794;48.348;7.878;2023-02-15T01:54:33;4.80;70.20
68011;DHT22;54794;48.348;7.878;2023-02-15T01:57:52;4.20;69.70
68011;DHT22;54794;48.348;7.878;2023-02-15T02:01:11;5.00;70.10
68011;DHT22;54794;48.348;7.878;2023-02-15T02:04:51;4.80;70.00
68011;DHT22;54794;48.348;7.878;2023-02-15T02:08:42;4.10;69.60
68011;DHT22;54794;48.348;7.878;2023-02-15T02:12:18;4.50;70.30
68011;DHT22;54794;48.348;7.878;2023-02-15T02:31:36;4.10;69.70
68011;DHT22;54794;48.348;7.878;2023-02-15T02:46:20;4.00;69.50
68011;DHT22;54794;48.348;7.878;2023-02-15T02:48:53;4.00;69.50
68011;DHT22;54794;48.348;7.878;2023-02-15T02:51:24;4.00;69.50
68011;DHT22;54794;48.348;7.878;2023-02-15T03:02:19;4.00;69.70
68011;DHT22;54794;48.348;7.878;2023-02-15T03:06:09;3.90;69.60
68011;DHT22;54794;48.348;7.878;2023-02-15T03:17:27;3.90;69.50
68011;DHT22;54794;48.348;7.878;2023-02-15T03:28:57;3.90;69.70
68011;DHT22;54794;48.348;7.878;2023-02-15T03:32:10;3.90;69.60
68011;DHT22;54794;48.348;7.878;2023-02-15T03:35:34;4.70;70.10
68011;DHT22;54794;48.348;7.878;2023-02-15T04:07:29;4.20;69.90
68011;DHT22;54794;48.348;7.878;2023-02-15T04:10:23;3.70;69.60
68011;DHT22;54794;48.348;7.878;2023-02-15T04:14:11;3.70;69.60
68011;DHT22;54794;48.348;7.878;2023-02-15T04:33:22;3.60;69.70
68011;DHT22;54794;48.348;7.878;2023-02-15T04:37:27;3.60;69.60
68011;DHT22;54794;48.348;7.878;2023-02-15T04:41:30;4.10;69.90
68011;DHT22;54794;48.348;7.878;2023-02-15T04:45:06;3.70;69.70
68011;DHT22;54794;48.348;7.878;2023-02-15T04:48:13;3.70;69.70
68011;DHT22;54794;48.348;7.878;2023-02-15T04:51:53;3.60;69.70
68011;DHT22;54794;48.348;7.878;2023-02-15T04:55:56;3.80;69.70
68011;DHT22;54794;48.348;7.878;2023-02-15T05:03:07;4.20;69.90
68011;DHT22;54794;48.348;7.878;2023-02-15T05:18:44;3.50;69.50
68011;DHT22;54794;48.348;7.878;2023-02-15T05:22:07;3.40;69.50
68011;DHT22;54794;48.348;7.878;2023-02-15T05:49:17;3.50;69.70
68011;DHT22;54794;48.348;7.878;2023-02-15T05:53:11;3.30;69.60
68011;DHT22;54794;48.348;7.878;2023-02-15T05:57:04;3.50;69.70
68011;DHT22;54794;48.348;7.878;2023-02-15T06:12:15;3.20;69.60
68011;DHT22;54794;48.348;7.878;2023-02-15T06:15:45;4.20;70.20
68011;DHT22;54794;48.348;7.878;2023-02-15T06:18:33;3.30;69.80
68011;DHT22;54794;48.348;7.878;2023-02-15T06:21:32;3.90;70.20
68011;DHT22;54794;48.348;7.878;2023-02-15T06:40:32;3.30;69.80
68011;DHT22;54794;48.348;7.878;2023-02-15T06:44:15;3.30;69.70
68011;DHT22;54794;48.348;7.878;2023-02-15T06:47:12;3.40;69.90
68011;DHT22;54794;48.348;7.878;2023-02-15T06:50:19;3.30;70.00
68011;DHT22;54794;48.348;7.878;2023-02-15T06:53:48;3.30;69.90
68011;DHT22;54794;48.348;7.878;2023-02-15T06:56:48;3.10;69.80
68011;DHT22;54794;48.348;7.878;2023-02-15T07:03:13;3.30;69.80
68011;DHT22;54794;48.348;7.878;2023-02-15T07:06:36;3.30;69.70
68011;DHT22;54794;48.348;7.878;2023-02-15T07:09:41;3.30;69.80
68011;DHT22;54794;48.348;7.878;2023-02-15T07:12:16;3.30;69.80
68011;DHT22;54794;48.348;7.878;2023-02-15T07:15:29;4.00;70.10
68011;DHT22;54794;48.348;7.878;2023-02-15T07:17:59;2.70;69.30
68011;DHT22;54794;48.348;7.878;2023-02-15T07:20:55;3.40;69.80
68011;DHT22;54794;48.348;7.878;2023-02-15T07:23:38;4.20;70.40
68011;DHT22;54794;48.348;7.878;2023-02-15T07:26:07;3.90;70.10
68011;DHT22;54794;48.348;7.878;2023-02-15T07:29:15;3.90;70.20
68011;DHT22;54794;48.348;7.878;2023-02-15T07:31:56;4.30;70.50
68011;DHT22;54794;48.348;7.878;2023-02-15T07:38:52;3.40;70.00
68011;DHT22;54794;48.348;7.878;2023-02-15T07:43:03;3.30;69.70
68011;DHT22;54794;48.348;7.878;2023-02-15T07:46:14;3.50;69.90
68011;DHT22;54794;48.348;7.878;2023-02-15T07:49:53;3.60;69.90
68011;DHT22;54794;48.348;7.878;2023-02-15T07:52:52;3.20;69.80
68011;DHT22;54794;48.348;7.878;2023-02-15T07:56:09;3.60;69.90
68011;DHT22;54794;48.348;7.878;2023-02-15T07:59:03;4.30;70.60
68011;DHT22;54794;48.348;7.878;2023-02-15T08:01:51;3.30;70.00
68011;DHT22;54794;48.348;7.878;2023-02-15T08:04:35;3.30;70.00
68011;DHT22;54794;48.348;7.878;2023-02-15T08:07:11;3.20;69.80
68011;DHT22;54794;48.348;7.878;2023-02-15T08:09:41;3.40;70.00
68011;DHT22;54794;48.348;7.878;2023-02-15T08:12:21;4.20;70.40
68011;DHT22;54794;48.348;7.878;2023-02-15T08:15:02;3.40;69.90
68011;DHT22;54794;48.348;7.878;2023-02-15T08:17:45;3.70;70.20
68011;DHT22;54794;48.348;7.878;2023-02-15T08:20:20;3.40;70.00
68011;DHT22;54794;48.348;7.878;2023-02-15T08:22:53;3.70;70.20
68011;DHT22;54794;48.348;7.878;2023-02-15T08:25:44;3.50;70.00
68011;DHT22;54794;48.348;7.878;2023-02-15T08:28:35;3.50;70.20
68011;DHT22;54794;48.348;7.878;2023-02-15T08:31:29;3.60;70.20
68011;DHT22;54794;48.348;7.878;2023-02-15T08:34:16;4.40;70.40
68011;DHT22;54794;48.348;7.878;2023-02-15T08:36:48;3.60;70.00
68011;DHT22;54794;48.348;7.878;2023-02-15T08:39:25;4.50;70.50
68011;DHT22;54794;48.348;7.878;2023-02-15T08:41:57;4.20;70.30
68011;DHT22;54794;48.348;7.878;2023-02-15T08:44:36;3.70;69.90
68011;DHT22;54794;48.348;7.878;2023-02-15T08:47:08;4.60;70.40
68011;DHT22;54794;48.348;7.878;2023-02-15T08:49:43;4.20;70.00
68011;DHT22;54794;48.348;7.878;2023-02-15T08:52:11;4.40;70.20
68011;DHT22;54794;48.348;7.878;2023-02-15T08:54:49;3.60;69.80
68011;DHT22;54794;48.348;7.878;2023-02-15T08:57:18;4.20;70.30
68011;DHT22;54794;48.348;7.878;2023-02-15T09:00:26;3.50;69.90
68011;DHT22;54794;48.348;7.878;2023-02-15T09:03:03;4.50;70.50
68011;DHT22;54794;48.348;7.878;2023-02-15T09:06:05;4.00;70.30
68011;DHT22;54794;48.348;7.878;2023-02-15T09:08:57;3.80;70.30
68011;DHT22;54794;48.348;7.878;2023-02-15T09:11:45;3.80;70.30
68011;DHT22;54794;48.348;7.878;2023-02-15T09:14:37;3.80;70.40
68011;DHT22;54794;48.348;7.878;2023-02-15T09:17:17;3.70;70.20
68011;DHT22;54794;48.348;7.878;2023-02-15T09:19:52;4.90;70.60
68011;DHT22;54794;48.348;7.878;2023-02-15T09:22:30;3.90;69.90
68011;DHT22;54794;48.348;7.878;2023-02-15T09:25:03;3.90;69.80
68011;DHT22;54794;48.348;7.878;2023-02-15T09:27:35;3.60;69.70
68011;DHT22;54794;48.348;7.878;2023-02-15T09:30:24;4.20;70.00
68011;DHT22;54794;48.348;7.878;2023-02-15T09:33:04;4.10;70.00
68011;DHT22;54794;48.348;7.878;2023-02-15T09:35:47;4.10;70.00
68011;DHT22;54794;48.348;7.878;2023-02-15T09:38:17;3.90;69.90
68011;DHT22;54794;48.348;7.878;2023-02-15T10:07:38;4.10;70.10
68011;DHT22;54794;48.348;7.878;2023-02-15T10:10:34;4.10;70.10
68011;DHT22;54794;48.348;7.878;2023-02-15T10:13:40;4.30;70.50
68011;DHT22;54794;48.348;7.878;2023-02-15T10:17:01;4.30;70.60
68011;DHT22;54794;48.348;7.878;2023-02-15T10:28:50;4.40;70.60
68011;DHT22;54794;48.348;7.878;2023-02-15T10:31:39;5.30;70.90
68011;DHT22;54794;48.348;7.878;2023-02-15T10:34:32;4.80;70.50
68011;DHT22;54794;48.348;7.878;2023-02-15T10:42:58;4.60;70.70
68011;DHT22;54794;48.348;7.878;2023-02-15T10:46:04;4.60;70.60
68011;DHT22;54794;48.348;7.878;2023-02-15T10:55:34;4.80;70.40
68011;DHT22;54794;48.348;7.878;2023-02-15T11:01:30;4.80;70.20
68011;DHT22;54794;48.348;7.878;2023-02-15T11:06:39;4.80;70.40
68011;DHT22;54794;48.348;7.878;2023-02-15T11:09:15;4.80;70.40
68011;DHT22;54794;48.348;7.878;2023-02-15T11:11:55;4.90;70.40
68011;DHT22;54794;48.348;7.878;2023-02-15T11:17:25;4.90;70.70
68011;DHT22;54794;48.348;7.878;2023-02-15T11:23:13;5.10;70.80
68011;DHT22;54794;48.348;7.878;2023-02-15T11:25:45;5.10;70.70
68011;DHT22;54794;48.348;7.878;2023-02-15T11:28:30;5.20;70.60
68011;DHT22;54794;48.348;7.878;2023-02-15T11:31:10;5.20;70.50
68011;DHT22;54794;48.348;7.878;2023-02-15T11:33:44;5.20;70.50
68011;DHT22;54794;48.348;7.878;2023-02-15T11:36:24;5.30;70.60
68011;DHT22;54794;48.348;7.878;2023-02-15T11:39:07;5.30;70.80
68011;DHT22;54794;48.348;7.878;2023-02-15T11:41:40;5.40;71.00
68011;DHT22;54794;48.348;7.878;2023-02-15T11:44:17;5.40;71.10
68011;DHT22;54794;48.348;7.878;2023-02-15T11:46:50;5.80;71.50
68011;DHT22;54794;48.348;7.878;2023-02-15T11:49:33;5.60;71.30
68011;DHT22;54794;48.348;7.878;2023-02-15T11:52:06;5.70;71.60
68011;DHT22;54794;48.348;7.878;2023-02-15T11:54:41;5.80;71.00
68011;DHT22;54794;48.348;7.878;2023-02-15T11:57:33;6.00;71.00
68011;DHT22;54794;48.348;7.878;2023-02-15T12:00:12;5.90;70.80
68011;DHT22;54794;48.348;7.878;2023-02-15T12:02:50;5.90;70.60
68011;DHT22;54794;48.348;7.878;2023-02-15T12:05:22;5.90;70.60
68011;DHT22;54794;48.348;7.878;2023-02-15T12:08:02;6.00;70.70
68011;DHT22;54794;48.348;7.878;2023-02-15T12:11:00;6.00;70.90
68011;DHT22;54794;48.348;7.878;2023-02-15T12:13:33;6.10;70.90
68011;DHT22;54794;48.348;7.878;2023-02-15T12:16:06;6.20;70.70
68011;DHT22;54794;48.348;7.878;2023-02-15T12:18:40;6.10;70.70
68011;DHT22;54794;48.348;7.878;2023-02-15T12:21:14;6.20;70.70
68011;DHT22;54794;48.348;7.878;2023-02-15T12:23:51;6.20;70.60
68011;DHT22;54794;48.348;7.878;2023-02-15T12:26:32;6.20;70.60
68011;DHT22;54794;48.348;7.878;2023-02-15T12:29:12;6.30;70.60
68011;DHT22;54794;48.348;7.878;2023-02-15T12:31:48;6.30;70.60
68011;DHT22;54794;48.348;7.878;2023-02-15T12:34:25;6.50;70.60
68011;DHT22;54794;48.348;7.878;2023-02-15T12:37:00;6.30;70.40
68011;DHT22;54794;48.348;7.878;2023-02-15T12:39:34;6.30;70.40
68011;DHT22;54794;48.348;7.878;2023-02-15T12:42:04;6.80;70.50
68011;DHT22;54794;48.348;7.878;2023-02-15T12:47:21;6.40;70.20
68011;DHT22;54794;48.348;7.878;2023-02-15T12:50:23;6.40;70.20
68011;DHT22;54794;48.348;7.878;2023-02-15T12:55:58;6.40;70.30
68011;DHT22;54794;48.348;7.878;2023-02-15T12:58:37;6.40;70.20
68011;DHT22;54794;48.348;7.878;2023-02-15T13:03:55;6.40;70.20
68011;DHT22;54794;48.348;7.878;2023-02-15T13:06:25;6.40;70.30
68011;DHT22;54794;48.348;7.878;2023-02-15T13:11:46;6.40;70.20
68011;DHT22;54794;48.348;7.878;2023-02-15T13:14:33;6.90;70.40
68011;DHT22;54794;48.348;7.878;2023-02-15T13:17:02;6.50;70.20
68011;DHT22;54794;48.348;7.878;2023-02-15T13:19:39;6.80;70.30
68011;DHT22;54794;48.348;7.878;2023-02-15T13:22:39;6.40;70.20
68011;DHT22;54794;48.348;7.878;2023-02-15T13:25:14;6.50;70.40
68011;DHT22;54794;48.348;7.878;2023-02-15T13:27:55;6.50;70.50
68011;DHT22;54794;48.348;7.878;2023-02-15T13:30:26;6.50;70.50
68011;DHT22;54794;48.348;7.878;2023-02-15T13:42:30;6.60;70.40
68011;DHT22;54794;48.348;7.878;2023-02-15T13:48:18;6.60;70.30
68011;DHT22;54794;48.348;7.878;2023-02-15T14:06:35;6.80;70.40
68011;DHT22;54794;48.348;7.878;2023-02-15T14:09:40;6.80;70.30
68011;DHT22;54794;48.348;7.878;2023-02-15T14:18:27;6.90;70.20
68011;DHT22;54794;48.348;7.878;2023-02-15T14:21:31;6.90;70.00
68011;DHT22;54794;48.348;7.878;2023-02-15T14:27:50;6.90;70.00
68011;DHT22;54794;48.348;7.878;2023-02-15T14:30:37;6.90;69.90
68011;DHT22;54794;48.348;7.878;2023-02-15T14:33:21;7.30;70.00
68011;DHT22;54794;48.348;7.878;2023-02-15T14:36:08;7.30;70.00
68011;DHT22;54794;48.348;7.878;2023-02-15T14:39:17;7.00;69.90
68011;DHT22;54794;48.348;7.878;2023-02-15T14:42:34;6.80;69.90
68011;DHT22;54794;48.348;7.878;2023-02-15T14:45:31;6.70;69.80
68011;DHT22;54794;48.348;7.878;2023-02-15T14:48:40;7.00;70.00
68011;DHT22;54794;48.348;7.878;2023-02-15T14:51:10;7.10;70.20
68011;DHT22;54794;48.348;7.878;2023-02-15T14:53:57;6.80;69.90
68011;DHT22;54794;48.348;7.878;2023-02-15T14:56:25;6.90;69.90
68011;DHT22;54794;48.348;7.878;2023-02-15T15:01:33;6.70;69.90
68011;DHT22;54794;48.348;7.878;2023-02-15T15:04:06;6.90;70.20
68011;DHT22;54794;48.348;7.878;2023-02-15T15:06:38;7.00;70.20
68011;DHT22;54794;48.348;7.878;2023-02-15T15:09:22;6.80;70.10
68011;DHT22;54794;48.348;7.878;2023-02-15T15:12:06;6.60;70.00
68011;DHT22;54794;48.348;7.878;2023-02-15T15:14:50;7.00;70.20
68011;DHT22;54794;48.348;7.878;2023-02-15T15:20:12;6.60;70.00
68011;DHT22;54794;48.348;7.878;2023-02-15T15:25:50;6.60;70.20
68011;DHT22;54794;48.348;7.878;2023-02-15T15:31:16;6.60;70.20
68011;DHT22;54794;48.348;7.878;2023-02-15T15:34:45;6.60;70.20
68011;DHT22;54794;48.348;7.878;2023-02-15T15:43:44;6.60;70.10
68011;DHT22;54794;48.348;7.878;2023-02-15T15:49:33;6.60;70.10
68011;DHT22;54794;48.348;7.878;2023-02-15T15:52:19;6.50;70.10
68011;DHT22;54794;48.348;7.878;2023-02-15T15:54:53;6.50;70.20
68011;DHT22;54794;48.348;7.878;2023-02-15T15:57:27;6.70;70.30
68011;DHT22;54794;48.348;7.878;2023-02-15T15:59:57;6.80;70.40
68011;DHT22;54794;48.348;7.878;2023-02-15T16:02:28;6.50;70.20
68011;DHT22;54794;48.348;7.878;2023-02-15T16:05:06;6.50;70.20
68011;DHT22;54794;48.348;7.878;2023-02-15T16:07:36;6.50;70.20
68011;DHT22;54794;48.348;7.878;2023-02-15T16:10:05;6.50;70.20
68011;DHT22;54794;48.348;7.878;2023-02-15T16:12:46;6.50;70.20
68011;DHT22;54794;48.348;7.878;2023-02-15T16:15:23;6.50;70.10
68011;DHT22;54794;48.348;7.878;2023-02-15T16:17:57;6.50;70.20
68011;DHT22;54794;48.348;7.878;2023-02-15T16:20:27;6.40;70.10
68011;DHT22;54794;48.348;7.878;2023-02-15T16:23:10;6.50;70.20
68011;DHT22;54794;48.348;7.878;2023-02-15T16:28:31;6.40;70.20
68011;DHT22;54794;48.348;7.878;2023-02-15T16:33:43;6.80;70.40
68011;DHT22;54794;48.348;7.878;2023-02-15T16:36:26;6.60;70.20
68011;DHT22;54794;48.348;7.878;2023-02-15T16:39:07;6.40;70.20
68011;DHT22;54794;48.348;7.878;2023-02-15T16:41:36;6.40;70.20
68011;DHT22;54794;48.348;7.878;2023-02-15T16:44:15;6.60;70.30
68011;DHT22;54794;48.348;7.878;2023-02-15T16:46:48;6.70;70.40
68011;DHT22;54794;48.348;7.878;2023-02-15T16:49:24;6.40;70.20
68011;DHT22;54794;48.348;7.878;2023-02-15T16:52:02;6.30;70.10
68011;DHT22;54794;48.348;7.878;2023-02-15T16:54:35;6.70;70.40
68011;DHT22;54794;48.348;7.878;2023-02-15T16:57:03;6.40;70.10
68011;DHT22;54794;48.348;7.878;2023-02-15T16:59:39;6.70;70.30
68011;DHT22;54794;48.348;7.878;2023-02-15T17:02:20;6.30;70.10
68011;DHT22;54794;48.348;7.878;2023-02-15T17:07:40;6.50;70.10
68011;DHT22;54794;48.348;7.878;2023-02-15T17:10:36;6.20;69.90
68011;DHT22;54794;48.348;7.878;2023-02-15T17:13:17;6.20;70.00
68011;DHT22;54794;48.348;7.878;2023-02-15T17:16:22;6.10;69.90
68011;DHT22;54794;48.348;7.878;2023-02-15T17:19:09;6.10;69.90
68011;DHT22;54794;48.348;7.878;2023-02-15T17:21:49;6.00;69.80
68011;DHT22;54794;48.348;7.878;2023-02-15T17:24:43;6.00;69.80
68011;DHT22;54794;48.348;7.878;2023-02-15T17:27:28;5.90;69.80
68011;DHT22;54794;48.348;7.878;2023-02-15T17:30:12;6.70;70.30
68011;DHT22;54794;48.348;7.878;2023-02-15T17:33:20;5.80;69.90
68011;DHT22;54794;48.348;7.878;2023-02-15T17:36:23;5.80;69.90
68011;DHT22;54794;48.348;7.878;2023-02-15T17:41:35;6.30;70.20
68011;DHT22;54794;48.348;7.878;2023-02-15T17:44:04;5.70;69.80
68011;DHT22;54794;48.348;7.878;2023-02-15T17:46:38;5.70;69.80
68011;DHT22;54794;48.348;7.878;2023-02-15T17:49:06;5.70;69.90
68011;DHT22;54794;48.348;7.878;2023-02-15T17:51:37;6.40;70.30
68011;DHT22;54794;48.348;7.878;2023-02-15T17:54:04;6.60;70.40
68011;DHT22;54794;48.348;7.878;2023-02-15T17:56:57;5.60;69.90
68011;DHT22;54794;48.348;7.878;2023-02-15T17:59:31;6.50;70.40
68011;DHT22;54794;48.348;7.878;2023-02-15T18:01:58;6.50;70.40
68011;DHT22;54794;48.348;7.878;2023-02-15T18:04:43;6.60;70.50
68011;DHT22;54794;48.348;7.878;2023-02-15T18:07:29;5.70;70.00
68011;DHT22;54794;48.348;7.878;2023-02-15T18:10:17;6.10;70.20
68011;DHT22;54794;48.348;7.878;2023-02-15T18:13:03;5.40;69.80
68011;DHT22;54794;48.348;7.878;2023-02-15T18:15:33;5.40;69.80
68011;DHT22;54794;48.348;7.878;2023-02-15T18:18:01;5.40;69.80
68011;DHT22;54794;48.348;7.878;2023-02-15T18:20:33;5.70;70.00
68011;DHT22;54794;48.348;7.878;2023-02-15T18:23:02;6.00;70.20
68011;DHT22;54794;48.348;7.878;2023-02-15T18:25:29;5.30;69.80
68011;DHT22;54794;48.348;7.878;2023-02-15T18:27:56;5.30;69.90
68011;DHT22;54794;48.348;7.878;2023-02-15T18:30:24;5.30;69.90
68011;DHT22;54794;48.348;7.878;2023-02-15T18:32:54;5.90;70.30
68011;DHT22;54794;48.348;7.878;2023-02-15T18:35:25;5.70;70.30
68011;DHT22;54794;48.348;7.878;2023-02-15T18:37:55;5.30;70.10
68011;DHT22;54794;48.348;7.878;2023-02-15T18:40:26;5.80;70.40
68011;DHT22;54794;48.348;7.878;2023-02-15T18:42:56;5.70;70.40
68011;DHT22;54794;48.348;7.878;2023-02-15T18:45:39;6.00;71.30
68011;DHT22;54794;48.348;7.878;2023-02-15T18:48:13;5.20;70.20
68011;DHT22;54794;48.348;7.878;2023-02-15T18:50:49;6.00;70.80
68011;DHT22;54794;48.348;7.878;2023-02-15T18:53:20;5.10;70.40
68011;DHT22;54794;48.348;7.878;2023-02-15T18:55:49;4.90;70.70
68011;DHT22;54794;48.348;7.878;2023-02-15T18:58:24;5.70;70.80
68011;DHT22;54794;48.348;7.878;2023-02-15T19:00:53;4.90;70.50
68011;DHT22;54794;48.348;7.878;2023-02-15T19:03:34;5.30;70.70
68011;DHT22;54794;48.348;7.878;2023-02-15T19:06:04;5.00;70.60
68011;DHT22;54794;48.348;7.878;2023-02-15T19:08:32;4.90;70.50
68011;DHT22;54794;48.348;7.878;2023-02-15T19:11:00;4.90;70.50
68011;DHT22;54794;48.348;7.878;2023-02-15T19:13:27;5.90;71.20
68011;DHT22;54794;48.348;7.878;2023-02-15T19:15:56;5.40;70.40
68011;DHT22;54794;48.348;7.878;2023-02-15T19:18:28;4.90;70.00
68011;DHT22;54794;48.348;7.878;2023-02-15T19:21:04;5.40;70.40
68011;DHT22;54794;48.348;7.878;2023-02-15T19:23:43;4.70;70.20
68011;DHT22;54794;48.348;7.878;2023-02-15T19:27:39;5.30;70.60
68011;DHT22;54794;48.348;7.878;2023-02-15T19:31:07;4.60;70.40
68011;DHT22;54794;48.348;7.878;2023-02-15T19:33:45;4.50;70.30
68011;DHT22;54794;48.348;7.878;2023-02-15T19:36:24;5.50;70.80
68011;DHT22;54794;48.348;7.878;2023-02-15T19:39:34;4.90;70.70
68011;DHT22;54794;48.348;7.878;2023-02-15T19:42:28;4.40;70.50
68011;DHT22;54794;48.348;7.878;2023-02-15T19:45:00;4.60;70.60
68011;DHT22;54794;48.348;7.878;2023-02-15T19:47:30;4.60;70.60
68011;DHT22;54794;48.348;7.878;2023-02-15T19:50:17;4.70;70.60
68011;DHT22;54794;48.348;7.878;2023-02-15T19:52:55;4.50;70.60
68011;DHT22;54794;48.348;7.878;2023-02-15T19:55:31;5.00;70.80
68011;DHT22;54794;48.348;7.878;2023-02-15T19:58:10;4.20;70.40
68011;DHT22;54794;48.348;7.878;2023-02-15T20:00:44;5.40;71.20
68011;DHT22;54794;48.348;7.878;2023-02-15T20:03:23;4.50;70.70
68011;DHT22;54794;48.348;7.878;2023-02-15T20:06:14;4.50;70.70
68011;DHT22;54794;48.348;7.878;2023-02-15T20:09:00;4.70;70.80
68011;DHT22;54794;48.348;7.878;2023-02-15T20:11:34;4.50;70.60
68011;DHT22;54794;48.348;7.878;2023-02-15T20:14:14;4.90;70.80
68011;DHT22;54794;48.348;7.878;2023-02-15T20:16:44;4.50;70.60
68011;DHT22;54794;48.348;7.878;2023-02-15T20:19:29;5.40;71.20
68011;DHT22;54794;48.348;7.878;2023-02-15T20:22:24;5.40;71.10
68011;DHT22;54794;48.348;7.878;2023-02-15T20:25:07;5.40;71.70
68011;DHT22;54794;48.348;7.878;2023-02-15T20:27:39;4.50;70.70
68011;DHT22;54794;48.348;7.878;2023-02-15T20:30:23;4.50;70.60
68011;DHT22;54794;48.348;7.878;2023-02-15T20:32:59;4.50;70.70
68011;DHT22;54794;48.348;7.878;2023-02-15T20:35:36;4.50;70.60
68011;DHT22;54794;48.348;7.878;2023-02-15T20:38:26;4.40;70.50
68011;DHT22;54794;48.348;7.878;2023-02-15T20:40:59;4.40;70.60
68011;DHT22;54794;48.348;7.878;2023-02-15T20:43:45;5.10;70.80
68011;DHT22;54794;48.348;7.878;2023-02-15T20:46:32;4.70;70.60
68011;DHT22;54794;48.348;7.878;2023-02-15T20:49:19;5.00;71.00
68011;DHT22;54794;48.348;7.878;2023-02-15T20:56:21;4.50;71.10
68011;DHT22;54794;48.348;7.878;2023-02-15T20:58:56;4.20;70.80
68011;DHT22;54794;48.348;7.878;2023-02-15T21:01:39;4.20;70.90
68011;DHT22;54794;48.348;7.878;2023-02-15T21:04:20;4.20;70.90
68011;DHT22;54794;48.348;7.878;2023-02-15T21:06:55;4.60;71.20
68011;DHT22;54794;48.348;7.878;2023-02-15T21:09:30;4.20;70.90
68011;DHT22;54794;48.348;7.878;2023-02-15T21:12:02;4.20;71.00
68011;DHT22;54794;48.348;7.878;2023-02-15T21:14:53;4.20;71.00
68011;DHT22;54794;48.348;7.878;2023-02-15T21:17:29;4.80;71.50
68011;DHT22;54794;48.348;7.878;2023-02-15T21:20:01;4.10;70.90
68011;DHT22;54794;48.348;7.878;2023-02-15T21:22:44;4.50;71.20
68011;DHT22;54794;48.348;7.878;2023-02-15T21:25:21;4.20;71.00
68011;DHT22;54794;48.348;7.878;2023-02-15T21:28:09;4.50;71.20
68011;DHT22;54794;48.348;7.878;2023-02-15T21:30:53;4.20;71.00
68011;DHT22;54794;48.348;7.878;2023-02-15T21:33:34;5.00;71.30
68011;DHT22;54794;48.348;7.878;2023-02-15T21:36:07;4.10;70.80
68011;DHT22;54794;48.348;7.878;2023-02-15T21:38:41;4.20;70.90
68011;DHT22;54794;48.348;7.878;2023-02-15T21:41:20;4.20;70.90
68011;DHT22;54794;48.348;7.878;2023-02-15T21:44:19;4.10;70.80
68011;DHT22;54794;48.348;7.878;2023-02-15T21:47:23;4.10;70.90
68011;DHT22;54794;48.348;7.878;2023-02-15T21:50:19;4.10;70.80
68011;DHT22;54794;48.348;7.878;2023-02-15T21:53:12;4.10;70.80
68011;DHT22;54794;48.348;7.878;2023-02-15T21:56:00;4.10;70.90
68011;DHT22;54794;48.348;7.878;2023-02-15T21:58:37;5.00;71.50
68011;DHT22;54794;48.348;7.878;2023-02-15T22:01:28;4.80;71.40
68011;DHT22;54794;48.348;7.878;2023-02-15T22:04:01;4.70;71.50
68011;DHT22;54794;48.348;7.878;2023-02-15T22:06:30;4.10;71.10
68011;DHT22;54794;48.348;7.878;2023-02-15T22:09:15;4.50;71.50
68011;DHT22;54794;48.348;7.878;2023-02-15T22:11:54;4.20;71.50
68011;DHT22;54794;48.348;7.878;2023-02-15T22:14:40;4.10;71.30
68011;DHT22;54794;48.348;7.878;2023-02-15T22:17:17;4.20;71.40
68011;DHT22;54794;48.348;7.878;2023-02-15T22:19:55;5.10;71.90
68011;DHT22;54794;48.348;7.878;2023-02-15T22:22:35;4.10;71.40
68011;DHT22;54794;48.348;7.878;2023-02-15T22:25:16;4.50;71.50
68011;DHT22;54794;48.348;7.878;2023-02-15T22:27:47;5.00;71.90
68011;DHT22;54794;48.348;7.878;2023-02-15T22:30:46;4.20;71.40
68011;DHT22;54794;48.348;7.878;2023-02-15T22:33:28;4.20;71.70
68011;DHT22;54794;48.348;7.878;2023-02-15T22:36:31;4.70;71.70
68011;DHT22;54794;48.348;7.878;2023-02-15T22:39:08;4.20;71.40
68011;DHT22;54794;48.348;7.878;2023-02-15T22:41:40;4.80;71.70
68011;DHT22;54794;48.348;7.878;2023-02-15T22:44:23;4.20;71.40
68011;DHT22;54794;48.348;7.878;2023-02-15T22:46:59;5.30;71.80
68011;DHT22;54794;48.348;7.878;2023-02-15T22:49:34;4.20;71.00
68011;DHT22;54794;48.348;7.878;2023-02-15T22:52:12;4.70;71.10
68011;DHT22;54794;48.348;7.878;2023-02-15T22:54:43;4.60;70.90
68011;DHT22;54794;48.348;7.878;2023-02-15T22:57:30;4.00;70.50
68011;DHT22;54794;48.348;7.878;2023-02-15T23:00:08;5.00;71.00
68011;DHT22;54794;48.348;7.878;2023-02-15T23:02:40;4.10;70.50
68011;DHT22;54794;48.348;7.878;2023-02-15T23:05:18;4.00;70.40
68011;DHT22;54794;48.348;7.878;2023-02-15T23:07:55;4.00;70.40
68011;DHT22;54794;48.348;7.878;2023-02-15T23:10:28;4.40;70.70
68011;DHT22;54794;48.348;7.878;2023-02-15T23:13:18;3.90;70.50
68011;DHT22;54794;48.348;7.878;2023-02-15T23:15:59;3.80;70.50
68011;DHT22;54794;48.348;7.878;2023-02-15T23:18:40;4.70;71.10
68011;DHT22;54794;48.348;7.878;2023-02-15T23:21:29;4.70;71.30
68011;DHT22;54794;48.348;7.878;2023-02-15T23:24:25;3.90;71.10
68011;DHT22;54794;48.348;7.878;2023-02-15T23:27:01;3.90;71.20
68011;DHT22;54794;48.348;7.878;2023-02-15T23:29:48;4.20;71.30
68011;DHT22;54794;48.348;7.878;2023-02-15T23:32:24;4.70;71.80
68011;DHT22;54794;48.348;7.878;2023-02-15T23:35:18;4.20;71.50
68011;DHT22;54794;48.348;7.878;2023-02-15T23:37:49;3.90;71.50
68011;DHT22;54794;48.348;7.878;2023-02-15T23:40:23;3.80;71.40
68011;DHT22;54794;48.348;7.878;2023-02-15T23:43:17;4.30;71.70
68011;DHT22;54794;48.348;7.878;2023-02-15T23:45:47;3.90;71.50
68011;DHT22;54794;48.348;7.878;2023-02-15T23:48:44;4.50;71.90
68011;DHT22;54794;48.348;7.878;2023-02-15T23:51:15;3.90;71.70
68011;DHT22;54794;48.348;7.878;2023-02-15T23:53:45;4.50;71.80